Time;durP1;ratioP1;P1;durP2;ratioP2;P2;SDS_P1;SDS_P2;PMS_P1;PMS_P2;Temp;Humidity;BMP_temperature;BMP_pressure;BME280_temperature;BME280_humidity;BME280_pressure;Samples;Min_cycle;Max_cycle;Signal;HPM_P1;HPM_P2
2022/10/31 08:15:50;;;;;;;7.90;7.03;;;13.20;99.90;;;;;;6069705;23;20421;-88
2022/10/31 08:18:17;;;;;;;9.00;8.00;;;13.30;99.90;;;;;;6082330;23;20422;-84
2022/10/31 08:20:44;;;;;;;8.60;7.90;;;13.40;99.90;;;;;;6067598;23;20409;-84
2022/10/31 08:23:12;;;;;;;9.40;8.03;;;13.50;99.90;;;;;;6067810;23;20457;-84
2022/10/31 08:25:39;;;;;;;7.70;6.93;;;13.60;99.90;;;;;;6068357;23;20419;-84
2022/10/31 08:28:36;;;;;;;7.50;6.80;;;13.70;99.90;;;;;;6068821;23;20428;-83
2022/10/31 08:31:06;;;;;;;7.83;7.13;;;13.80;99.90;;;;;;6069069;23;20414;-83
2022/10/31 08:33:38;;;;;;;9.60;7.40;;;13.90;99.90;;;;;;6074897;23;20432;-85
2022/10/31 08:36:06;;;;;;;9.30;8.40;;;14.00;99.90;;;;;;6101057;23;20521;-84
2022/10/31 08:39:17;;;;;;;7.23;6.73;;;14.10;99.90;;;;;;6102942;23;20440;-84
2022/10/31 08:48:48;;;;;;;9.63;5.63;;;14.50;99.90;;;;;;6097776;23;20413;-84
2022/10/31 09:04:44;;;;;;;8.10;7.30;;;15.00;99.90;;;;;;6040875;23;20415;-84
2022/10/31 09:20:44;;;;;;;6.63;5.97;;;15.60;99.90;;;;;;6048574;23;20422;-83
2022/10/31 09:27:15;;;;;;;7.20;6.47;;;16.00;99.90;;;;;;6105467;23;20417;-85
2022/10/31 09:33:37;;;;;;;9.20;6.60;;;16.30;99.90;;;;;;6097000;23;20496;-85
2022/10/31 09:47:17;;;;;;;8.07;7.27;;;16.90;99.90;;;;;;5917749;24;20447;-85
2022/10/31 10:01:04;;;;;;;8.80;6.93;;;17.50;99.90;;;;;;5995396;23;20415;-85
2022/10/31 10:07:48;;;;;;;10.83;6.70;;;17.80;99.90;;;;;;5916976;24;20473;-84
2022/10/31 10:13:40;;;;;;;8.93;6.80;;;18.10;99.90;;;;;;6058301;23;20405;-85
2022/10/31 10:20:10;;;;;;;6.77;6.07;;;18.40;99.90;;;;;;6018791;23;20453;-85
2022/10/31 10:47:55;;;;;;;9.10;7.17;;;19.40;99.90;;;;;;6218031;23;20440;-84
2022/10/31 14:52:07;;;;;;;6.93;6.30;;;21.80;95.70;;;;;;5932113;24;20412;-83
2022/10/31 14:55:50;;;;;;;10.93;7.43;;;21.60;96.30;;;;;;6018765;23;20450;-83
2022/10/31 18:46:36;;;;;;;13.40;11.20;;;13.50;99.90;;;;;;6197609;23;20560;-80
2022/10/31 18:49:04;;;;;;;13.90;11.67;;;13.50;99.90;;;;;;6221423;23;20412;-79
2022/10/31 18:51:31;;;;;;;13.50;10.50;;;13.50;99.90;;;;;;6221015;23;20408;-81
2022/10/31 18:53:59;;;;;;;12.70;11.40;;;13.60;99.90;;;;;;6221504;23;20405;-81
2022/10/31 18:56:27;;;;;;;13.23;10.80;;;13.70;99.90;;;;;;6221780;23;20436;-81
2022/10/31 18:58:54;;;;;;;15.33;11.93;;;13.70;99.90;;;;;;6234390;23;20459;-80
2022/10/31 19:01:22;;;;;;;12.77;11.50;;;13.70;99.90;;;;;;6221630;23;20417;-80
2022/10/31 19:03:55;;;;;;;14.07;11.50;;;13.70;99.90;;;;;;6221287;23;20422;-80
2022/10/31 19:06:21;;;;;;;13.27;10.80;;;13.80;99.90;;;;;;6222025;23;20393;-80
2022/10/31 19:08:48;;;;;;;16.80;11.60;;;13.80;99.90;;;;;;6220519;23;20474;-79
2022/10/31 19:11:15;;;;;;;12.80;10.93;;;13.70;99.90;;;;;;6221892;23;20907;-82
2022/10/31 19:13:42;;;;;;;15.00;11.37;;;13.80;99.90;;;;;;6222574;23;20382;-81
2022/10/31 19:16:12;;;;;;;12.40;11.17;;;13.80;99.90;;;;;;6220910;23;20424;-80
2022/10/31 19:18:40;;;;;;;15.50;13.40;;;13.90;99.90;;;;;;6222835;23;20417;-81
2022/10/31 19:21:10;;;;;;;16.90;14.17;;;13.70;99.90;;;;;;6220858;23;20432;-82
2022/10/31 19:23:37;;;;;;;15.30;13.77;;;13.50;99.90;;;;;;6220948;23;20393;-82
2022/10/31 19:26:04;;;;;;;14.30;12.80;;;13.30;99.90;;;;;;6222007;23;20444;-82
2022/10/31 19:28:31;;;;;;;15.77;14.10;;;13.30;99.90;;;;;;6221269;23;20474;-82
2022/10/31 19:30:58;;;;;;;15.23;13.67;;;13.40;99.90;;;;;;6222010;23;20408;-81
2022/10/31 19:33:29;;;;;;;15.40;13.80;;;13.40;99.90;;;;;;6221397;23;20496;-82
2022/10/31 19:35:59;;;;;;;17.20;15.47;;;13.20;99.90;;;;;;6221286;23;20408;-81
2022/10/31 19:38:28;;;;;;;18.60;16.80;;;13.30;99.90;;;;;;6220933;23;20439;-81
2022/10/31 19:40:58;;;;;;;16.67;14.87;;;13.10;99.90;;;;;;6221890;23;20421;-81
2022/10/31 19:43:25;;;;;;;13.53;11.30;;;13.30;99.90;;;;;;6220517;23;20937;-81
2022/10/31 19:45:56;;;;;;;12.77;11.67;;;13.10;99.90;;;;;;6221665;23;20531;-81
2022/10/31 19:48:23;;;;;;;12.20;10.93;;;13.10;99.90;;;;;;6220928;23;20504;-82
2022/10/31 19:50:50;;;;;;;14.87;10.03;;;13.20;99.90;;;;;;6224567;23;20730;-81
2022/10/31 19:53:17;;;;;;;35.00;29.00;;;13.20;99.90;;;;;;6230075;23;20939;-79
2022/10/31 19:55:46;;;;;;;24.50;21.90;;;13.10;99.90;;;;;;6220621;23;20444;-81
2022/10/31 19:58:13;;;;;;;24.47;21.07;;;13.20;99.90;;;;;;6219849;23;20461;-81
2022/10/31 20:00:40;;;;;;;23.00;19.30;;;13.20;99.90;;;;;;6219818;23;20408;-81
2022/10/31 20:03:07;;;;;;;17.37;15.20;;;13.30;99.90;;;;;;6220542;23;20511;-81
2022/10/31 20:05:33;;;;;;;18.43;13.80;;;13.30;99.90;;;;;;6220070;23;20448;-79
2022/10/31 20:08:00;;;;;;;15.57;12.77;;;13.30;99.90;;;;;;6218536;23;20432;-80
2022/10/31 20:10:27;;;;;;;13.60;10.40;;;13.30;99.90;;;;;;6219437;23;20408;-80
2022/10/31 20:12:55;;;;;;;12.30;11.03;;;13.20;99.90;;;;;;6219808;23;20427;-81
2022/10/31 20:15:22;;;;;;;12.10;9.87;;;13.30;99.90;;;;;;6219406;23;20885;-81
2022/10/31 20:17:48;;;;;;;13.10;9.77;;;13.30;99.90;;;;;;6218408;23;20958;-81
2022/10/31 20:20:15;;;;;;;11.90;9.47;;;13.30;99.90;;;;;;6220034;23;20409;-81
2022/10/31 20:22:43;;;;;;;13.93;10.13;;;13.40;99.90;;;;;;6219697;23;20975;-81
2022/10/31 20:25:10;;;;;;;9.73;8.73;;;13.40;99.90;;;;;;6218896;23;20441;-81
2022/10/31 20:27:37;;;;;;;11.23;10.07;;;13.50;99.90;;;;;;6219525;23;20439;-82
2022/10/31 20:30:06;;;;;;;10.80;9.70;;;13.50;99.90;;;;;;6220001;23;20415;-81
2022/10/31 20:32:33;;;;;;;10.87;9.87;;;13.60;99.90;;;;;;6220185;23;20404;-81
2022/10/31 20:34:59;;;;;;;11.47;10.40;;;13.60;99.90;;;;;;6220269;23;20406;-81
2022/10/31 20:37:26;;;;;;;10.13;9.13;;;13.70;99.90;;;;;;6220276;23;20454;-81
2022/10/31 20:39:53;;;;;;;10.47;9.07;;;13.70;99.90;;;;;;6219272;23;20705;-81
2022/10/31 20:42:20;;;;;;;15.10;9.03;;;13.70;99.90;;;;;;6220328;23;20935;-81
2022/10/31 20:44:47;;;;;;;11.17;9.13;;;13.80;99.90;;;;;;6222856;23;20527;-81
2022/10/31 20:47:15;;;;;;;12.70;9.00;;;13.80;99.90;;;;;;6230651;23;20440;-81
2022/10/31 20:49:42;;;;;;;11.57;10.33;;;13.80;99.90;;;;;;6220776;23;20413;-81
2022/10/31 20:52:09;;;;;;;12.93;11.63;;;13.80;99.90;;;;;;6220854;23;20526;-81
2022/10/31 20:54:35;;;;;;;14.17;9.60;;;13.80;99.90;;;;;;6220827;23;20955;-81
2022/10/31 20:57:02;;;;;;;9.90;8.90;;;13.70;99.90;;;;;;6219713;23;20488;-81
2022/10/31 20:59:29;;;;;;;10.23;9.17;;;13.70;99.90;;;;;;6220043;23;20487;-81
2022/10/31 21:01:56;;;;;;;10.10;9.10;;;13.70;99.90;;;;;;6219951;23;20420;-81
2022/10/31 21:04:24;;;;;;;16.20;8.97;;;13.70;99.90;;;;;;6220224;23;20423;-81
2022/10/31 21:06:51;;;;;;;11.17;9.67;;;13.80;99.90;;;;;;6219802;23;20458;-81
2022/10/31 21:09:17;;;;;;;10.73;9.73;;;13.80;99.90;;;;;;6219541;23;20409;-81
2022/10/31 21:11:44;;;;;;;10.23;9.30;;;13.70;99.90;;;;;;6220144;23;20420;-81
2022/10/31 21:14:11;;;;;;;13.10;9.40;;;13.70;99.90;;;;;;6219600;23;20416;-81
2022/10/31 21:16:38;;;;;;;10.83;9.73;;;13.70;99.90;;;;;;6219172;23;20440;-82
2022/10/31 21:19:05;;;;;;;11.17;10.00;;;13.70;99.90;;;;;;6219299;23;21124;-81
2022/10/31 21:21:35;;;;;;;10.63;9.33;;;13.70;99.90;;;;;;6219751;23;20473;-81
2022/10/31 21:24:04;;;;;;;12.13;10.60;;;13.70;99.90;;;;;;6219970;23;20409;-81
2022/10/31 21:26:34;;;;;;;10.30;9.30;;;13.70;99.90;;;;;;6219787;23;20452;-81
2022/10/31 21:29:01;;;;;;;12.37;10.07;;;13.60;99.90;;;;;;6219539;23;20524;-81
2022/10/31 21:31:28;;;;;;;11.40;10.20;;;13.60;99.90;;;;;;6219999;23;20464;-81
2022/10/31 21:33:56;;;;;;;13.90;10.70;;;13.60;99.90;;;;;;6219486;23;21003;-82
2022/10/31 21:36:25;;;;;;;10.77;9.80;;;13.60;99.90;;;;;;6219149;23;20409;-81
2022/10/31 21:38:54;;;;;;;11.10;9.50;;;13.60;99.90;;;;;;6223152;23;20413;-81
2022/10/31 21:41:21;;;;;;;11.40;10.20;;;13.50;99.90;;;;;;6228101;23;20411;-81
2022/10/31 21:43:49;;;;;;;10.23;9.33;;;13.50;99.90;;;;;;6219547;23;20424;-81
2022/10/31 21:46:18;;;;;;;10.20;9.40;;;13.50;99.90;;;;;;6218869;23;20531;-81
2022/10/31 21:48:46;;;;;;;11.40;10.03;;;13.60;99.90;;;;;;6219520;23;20401;-81
2022/10/31 21:51:15;;;;;;;12.03;10.93;;;13.60;99.90;;;;;;6219834;23;20451;-81
2022/10/31 21:56:27;;;;;;;13.77;9.27;;;13.60;99.90;;;;;;6221022;23;20886;-81
2022/10/31 21:58:54;;;;;;;12.10;11.00;;;13.60;99.90;;;;;;6219996;23;20524;-81
2022/10/31 22:01:23;;;;;;;12.80;10.60;;;13.60;99.90;;;;;;6220711;23;20419;-81
2022/10/31 22:03:49;;;;;;;11.20;10.20;;;13.50;99.90;;;;;;6220660;23;20413;-81
2022/10/31 22:06:16;;;;;;;11.00;9.83;;;13.50;99.90;;;;;;6220291;23;20448;-81
2022/10/31 22:08:43;;;;;;;10.70;9.80;;;13.40;99.90;;;;;;6219650;23;20417;-81
2022/10/31 22:11:13;;;;;;;10.67;9.67;;;13.40;99.90;;;;;;6220790;23;20440;-81
2022/10/31 22:13:42;;;;;;;13.37;9.93;;;13.40;99.90;;;;;;6221282;23;20412;-81
2022/10/31 22:16:11;;;;;;;11.57;10.47;;;13.50;99.90;;;;;;6219639;23;20400;-81
2022/10/31 22:18:38;;;;;;;12.80;11.60;;;13.60;99.90;;;;;;6220393;23;20413;-81
2022/10/31 22:21:07;;;;;;;16.03;11.20;;;13.60;99.90;;;;;;6220923;23;20409;-81
2022/10/31 22:23:35;;;;;;;14.40;9.90;;;13.60;99.90;;;;;;6220292;23;20431;-81
2022/10/31 22:26:03;;;;;;;13.00;11.17;;;13.70;99.90;;;;;;6220855;23;20454;-81
2022/10/31 22:28:30;;;;;;;12.97;11.87;;;13.70;99.90;;;;;;6219990;23;20432;-81
2022/10/31 22:30:58;;;;;;;12.50;9.83;;;13.70;99.90;;;;;;6220466;23;20416;-81
2022/10/31 22:33:25;;;;;;;11.93;10.70;;;13.70;99.90;;;;;;6229924;23;20409;-81
2022/10/31 22:35:52;;;;;;;13.93;10.50;;;13.70;99.90;;;;;;6223467;23;20411;-82
2022/10/31 22:38:19;;;;;;;12.87;11.77;;;13.80;99.90;;;;;;6220011;23;20425;-82
2022/10/31 22:40:45;;;;;;;10.83;9.73;;;13.70;99.90;;;;;;6220863;23;20405;-81
2022/10/31 22:43:13;;;;;;;11.30;9.20;;;13.70;99.90;;;;;;6220519;23;20915;-82
2022/10/31 22:45:39;;;;;;;12.60;9.23;;;13.70;99.90;;;;;;6220738;23;20440;-82
2022/10/31 22:48:07;;;;;;;10.33;9.33;;;13.70;99.90;;;;;;6219872;23;20433;-82
2022/10/31 22:50:34;;;;;;;10.00;9.10;;;13.70;99.90;;;;;;6220484;23;20414;-82
2022/10/31 22:53:01;;;;;;;12.33;10.27;;;13.70;99.90;;;;;;6220607;23;21006;-82
2022/10/31 22:55:28;;;;;;;16.27;9.43;;;13.80;99.90;;;;;;6219842;23;20411;-81
2022/10/31 22:57:54;;;;;;;11.13;8.47;;;13.80;99.90;;;;;;6220601;23;20435;-81
2022/10/31 23:00:21;;;;;;;10.33;9.37;;;13.80;99.90;;;;;;6220188;23;20423;-82
2022/10/31 23:02:48;;;;;;;11.00;9.33;;;13.80;99.90;;;;;;6221237;23;20406;-82
2022/10/31 23:05:16;;;;;;;12.93;11.07;;;13.80;99.90;;;;;;6220300;23;20924;-81
2022/10/31 23:07:43;;;;;;;10.67;9.77;;;13.80;99.90;;;;;;6219454;23;20429;-81
2022/10/31 23:10:09;;;;;;;11.97;8.43;;;13.80;99.90;;;;;;6221050;23;20412;-82
2022/10/31 23:15:20;;;;;;;12.20;10.37;;;13.70;99.90;;;;;;6220221;23;20712;-82
2022/10/31 23:17:47;;;;;;;9.33;8.47;;;13.70;99.90;;;;;;6219074;23;20958;-81
2022/10/31 23:20:15;;;;;;;12.10;8.77;;;13.70;99.90;;;;;;6221041;23;20474;-82
2022/10/31 23:22:42;;;;;;;9.60;8.77;;;13.70;99.90;;;;;;6220648;23;20413;-81
2022/10/31 23:25:09;;;;;;;9.67;8.77;;;13.70;99.90;;;;;;6221380;23;20409;-82
2022/10/31 23:27:35;;;;;;;10.73;9.07;;;13.60;99.90;;;;;;6232056;23;20474;-81
2022/10/31 23:30:02;;;;;;;9.97;8.97;;;13.60;99.90;;;;;;6221266;23;20409;-82
2022/10/31 23:32:31;;;;;;;9.40;8.40;;;13.70;99.90;;;;;;6221222;23;20451;-82
2022/10/31 23:34:59;;;;;;;9.77;8.47;;;13.60;99.90;;;;;;6221980;23;20419;-81
2022/10/31 23:37:29;;;;;;;9.83;8.93;;;13.70;99.90;;;;;;6222089;23;20431;-81
2022/10/31 23:39:56;;;;;;;9.10;8.20;;;13.70;99.90;;;;;;6222190;23;20487;-81
2022/10/31 23:42:24;;;;;;;9.87;8.60;;;13.70;99.90;;;;;;6222030;23;20725;-81
2022/10/31 23:44:51;;;;;;;11.70;9.50;;;13.70;99.90;;;;;;6222504;23;20416;-82
2022/10/31 23:47:18;;;;;;;9.93;8.30;;;13.60;99.90;;;;;;6221359;23;20452;-82
2022/10/31 23:49:45;;;;;;;9.90;8.10;;;13.60;99.90;;;;;;6221684;23;20413;-82
2022/10/31 23:52:13;;;;;;;9.80;8.93;;;13.60;99.90;;;;;;6222055;23;20419;-81
2022/10/31 23:54:41;;;;;;;8.27;7.43;;;13.60;99.90;;;;;;6222008;23;20908;-82
2022/10/31 23:57:08;;;;;;;11.80;8.90;;;13.60;99.90;;;;;;6221322;23;20432;-81
2022/10/31 23:59:35;;;;;;;10.37;9.47;;;13.60;99.90;;;;;;6220983;23;20419;-81
